createdAt,value
2018-12-18T00:01:11.839Z,69.05
2018-12-18T00:03:45.741Z,69.53
2018-12-18T00:06:19.448Z,70.56
2018-12-18T00:08:53.561Z,70.17
2018-12-18T00:11:27.571Z,71.04
2018-12-18T00:14:01.579Z,70.25
2018-12-18T00:16:35.256Z,70.12
2018-12-18T00:19:08.984Z,70.01
2018-12-18T00:21:43.123Z,68.77
2018-12-18T00:24:16.825Z,68.30
2018-12-18T00:26:50.910Z,68.30
2018-12-18T00:29:25.028Z,67.71
2018-12-18T00:31:58.829Z,67.94
2018-12-18T00:34:32.838Z,67.57
2018-12-18T00:37:06.472Z,67.40
2018-12-18T00:39:40.356Z,67.19
2018-12-18T00:42:14.202Z,67.16
2018-12-18T00:44:48.165Z,67.80
2018-12-18T00:47:22.170Z,67.65
2018-12-18T00:49:55.973Z,67.32
2018-12-18T00:52:29.792Z,67.37
2018-12-18T00:55:04.163Z,67.54
2018-12-18T00:57:38.212Z,67.17
2018-12-18T01:00:12.362Z,66.89
2018-12-18T01:02:46.431Z,66.74
2018-12-18T01:05:20.236Z,66.80
2018-12-18T01:07:54.041Z,67.81
2018-12-18T01:10:27.951Z,68.13
2018-12-18T01:13:02.036Z,68.23
2018-12-18T01:15:36.172Z,67.67
2018-12-18T01:18:10.081Z,67.55
2018-12-18T01:20:45.024Z,67.29
2018-12-18T01:23:19.022Z,67.39
2018-12-18T01:25:52.830Z,67.21
2018-12-18T01:28:26.940Z,67.89
2018-12-18T01:31:00.641Z,67.68
2018-12-18T01:33:34.550Z,67.53
2018-12-18T01:36:08.726Z,66.87
2018-12-18T01:38:42.738Z,66.78
2018-12-18T01:41:16.781Z,66.69
2018-12-18T01:43:50.549Z,66.85
2018-12-18T01:46:24.699Z,66.85
2018-12-18T01:48:58.570Z,67.07
2018-12-18T01:51:32.470Z,66.87
2018-12-18T01:54:06.154Z,67.00
2018-12-18T01:56:40.124Z,66.83
2018-12-18T01:59:14.136Z,66.86
2018-12-18T02:01:48.023Z,67.02
2018-12-18T02:04:22.018Z,67.53
2018-12-18T02:06:56.178Z,67.19
2018-12-18T02:09:30.068Z,67.47
2018-12-18T02:12:04.286Z,68.19
2018-12-18T02:14:38.292Z,67.65
2018-12-18T02:17:12.207Z,67.13
2018-12-18T02:19:46.312Z,66.91
2018-12-18T02:22:20.322Z,67.00
2018-12-18T02:24:54.083Z,66.95
2018-12-18T02:27:28.101Z,66.66
2018-12-18T02:30:02.249Z,66.93
2018-12-18T02:32:36.165Z,66.75
2018-12-18T02:35:09.973Z,66.66
2018-12-18T02:37:44.073Z,66.86
2018-12-18T02:40:18.117Z,66.41
2018-12-18T02:42:52.157Z,66.65
2018-12-18T02:45:26.104Z,66.29
2018-12-18T02:48:00.213Z,66.38
2018-12-18T02:50:34.121Z,66.40
2018-12-18T02:53:08.027Z,66.17
2018-12-18T02:55:41.796Z,66.35
2018-12-18T02:58:15.949Z,66.14
2018-12-18T03:00:49.747Z,66.12
2018-12-18T03:03:23.964Z,66.15
2018-12-18T03:05:57.768Z,66.55
2018-12-18T03:08:31.783Z,66.08
2018-12-18T03:11:05.652Z,66.38
2018-12-18T03:13:39.696Z,66.33
2018-12-18T03:16:13.572Z,66.36
2018-12-18T03:18:47.715Z,66.64
2018-12-18T03:21:21.727Z,66.37
2018-12-18T03:23:55.837Z,66.61
2018-12-18T03:26:29.808Z,66.48
2018-12-18T03:29:04.061Z,67.07
2018-12-18T03:31:40.019Z,67.00
2018-12-18T03:34:13.790Z,67.95
2018-12-18T03:36:47.792Z,67.22
2018-12-18T03:39:21.942Z,67.52
2018-12-18T03:41:55.713Z,67.37
2018-12-18T03:44:29.756Z,67.37
2018-12-18T03:47:03.625Z,68.21
2018-12-18T03:49:37.880Z,69.26
2018-12-18T03:52:11.709Z,69.38
2018-12-18T03:54:46.208Z,70.68
2018-12-18T03:57:20.111Z,70.88
2018-12-18T03:59:54.005Z,69.74
2018-12-18T04:02:27.748Z,70.05
2018-12-18T04:05:01.730Z,68.87
2018-12-18T04:07:37.071Z,68.88
2018-12-18T04:10:11.032Z,68.95
2018-12-18T04:12:45.090Z,68.12
2018-12-18T04:15:18.898Z,68.97
2018-12-18T04:17:52.600Z,69.65
2018-12-18T04:20:26.712Z,68.46
2018-12-18T04:23:00.516Z,67.55
2018-12-18T04:25:34.201Z,66.93
2018-12-18T04:28:08.024Z,67.05
2018-12-18T04:30:42.135Z,67.19
2018-12-18T04:33:16.043Z,66.91
2018-12-18T04:35:50.052Z,67.05
2018-12-18T04:38:23.826Z,67.17
2018-12-18T04:40:57.821Z,67.15
2018-12-18T04:43:31.878Z,66.40
2018-12-18T04:46:05.783Z,66.71
2018-12-18T04:48:39.690Z,66.78
2018-12-18T04:51:13.701Z,67.20
2018-12-18T04:53:47.613Z,68.12
2018-12-18T04:56:21.617Z,68.24
2018-12-18T04:58:55.524Z,67.56
2018-12-18T05:01:29.333Z,67.53
2018-12-18T05:04:03.967Z,67.84
2018-12-18T05:06:38.123Z,67.76
2018-12-18T05:09:12.183Z,68.23
2018-12-18T05:11:46.289Z,68.67
2018-12-18T05:14:20.075Z,67.53
2018-12-18T05:16:54.206Z,68.17
2018-12-18T05:19:28.113Z,68.36
2018-12-18T05:22:02.234Z,68.08
2018-12-18T05:24:36.121Z,67.93
2018-12-18T05:27:10.247Z,68.24
2018-12-18T05:29:44.461Z,68.13
2018-12-18T05:32:18.279Z,68.01
2018-12-18T05:34:56.614Z,68.43
2018-12-18T05:37:30.561Z,67.77
2018-12-18T05:40:06.028Z,67.11
2018-12-18T05:42:39.833Z,66.94
2018-12-18T05:45:13.640Z,67.60
2018-12-18T05:47:47.750Z,67.14
2018-12-18T05:50:21.660Z,67.73
2018-12-18T05:52:55.418Z,68.15
2018-12-18T05:55:29.375Z,68.82
2018-12-18T05:58:03.481Z,68.51
2018-12-18T06:00:37.470Z,68.17
2018-12-18T06:03:11.439Z,67.33
2018-12-18T06:05:45.480Z,67.46
2018-12-18T06:08:19.623Z,67.52
2018-12-18T06:10:53.489Z,67.92
2018-12-18T06:13:30.782Z,67.91
2018-12-18T06:16:04.930Z,67.64
2018-12-18T06:18:38.834Z,67.47
2018-12-18T06:21:12.837Z,68.14
2018-12-18T06:23:47.166Z,67.76
2018-12-18T06:26:21.177Z,67.17
2018-12-18T06:28:54.978Z,67.86
2018-12-18T06:31:28.885Z,67.68
2018-12-18T06:34:03.817Z,67.08
2018-12-18T06:36:37.825Z,66.48
2018-12-18T06:39:11.632Z,66.88
2018-12-18T06:41:45.539Z,67.35
2018-12-18T06:44:19.348Z,67.50
2018-12-18T06:46:53.252Z,66.57
2018-12-18T06:49:27.155Z,66.56
2018-12-18T06:52:00.961Z,68.43
2018-12-18T06:54:35.072Z,67.18
2018-12-18T06:57:08.859Z,66.96
2018-12-18T06:59:42.989Z,65.94
2018-12-18T07:02:16.794Z,66.48
2018-12-18T07:04:50.701Z,67.63
2018-12-18T07:07:24.812Z,67.11
2018-12-18T07:09:58.745Z,66.26
2018-12-18T07:12:32.688Z,67.53
2018-12-18T07:15:06.945Z,66.53
2018-12-18T07:17:40.750Z,66.09
2018-12-18T07:20:14.657Z,65.58
2018-12-18T07:22:48.461Z,66.18
2018-12-18T07:25:22.266Z,66.29
2018-12-18T07:27:56.119Z,65.83
2018-12-18T07:30:30.082Z,65.66
2018-12-18T07:33:04.091Z,65.57
2018-12-18T07:35:38.204Z,65.73
2018-12-18T07:38:12.115Z,66.62
2018-12-18T07:40:46.222Z,67.61
2018-12-18T07:43:19.978Z,66.76
2018-12-18T07:45:54.139Z,66.24
2018-12-18T07:48:27.841Z,65.37
2018-12-18T07:51:02.953Z,65.18
2018-12-18T07:53:36.894Z,65.16
2018-12-18T07:56:11.008Z,65.16
2018-12-18T07:58:44.811Z,65.26
2018-12-18T08:01:18.812Z,64.73
2018-12-18T08:03:52.514Z,64.88
2018-12-18T08:06:26.414Z,64.68
2018-12-18T08:09:00.533Z,64.76
2018-12-18T08:11:34.324Z,65.39
2018-12-18T08:14:08.354Z,65.57
2018-12-18T08:16:42.257Z,65.71
2018-12-18T08:19:16.068Z,65.14
2018-12-18T08:21:50.070Z,64.96
2018-12-18T08:24:24.283Z,65.10
2018-12-18T08:26:58.050Z,64.99
2018-12-18T08:29:32.097Z,64.82
2018-12-18T08:32:05.986Z,64.62
2018-12-18T08:34:40.116Z,64.10
2018-12-18T08:37:14.024Z,64.53
2018-12-18T08:39:47.995Z,64.57
2018-12-18T08:42:22.232Z,64.20
2018-12-18T08:44:56.258Z,64.19
2018-12-18T08:47:30.064Z,64.15
2018-12-18T08:50:05.790Z,64.62
2018-12-18T08:52:39.618Z,64.77
2018-12-18T08:55:13.831Z,65.24
2018-12-18T08:57:47.519Z,64.48
2018-12-18T09:00:21.549Z,64.41
2018-12-18T09:02:55.250Z,64.39
2018-12-18T09:05:28.929Z,64.21
2018-12-18T09:08:02.856Z,64.33
2018-12-18T09:10:39.764Z,63.99
2018-12-18T09:13:12.441Z,63.23
2018-12-18T09:15:51.908Z,63.00
2018-12-18T09:18:25.830Z,63.46
2018-12-18T09:20:59.746Z,63.24
2018-12-18T09:23:33.775Z,62.78
2018-12-18T09:26:07.787Z,62.95
2018-12-18T09:28:41.692Z,63.16
2018-12-18T09:31:15.599Z,63.69
2018-12-18T09:33:49.609Z,63.50
2018-12-18T09:36:23.489Z,63.42
2018-12-18T09:39:02.689Z,63.46
2018-12-18T09:41:40.650Z,63.15
2018-12-18T09:44:16.912Z,63.59
2018-12-18T09:46:51.070Z,63.91
2018-12-18T09:49:24.845Z,63.86
2018-12-18T09:51:58.838Z,63.26
2018-12-18T09:54:32.562Z,62.82
2018-12-18T09:57:08.700Z,62.84
2018-12-18T09:59:42.711Z,62.43
2018-12-18T10:02:16.720Z,62.15
2018-12-18T10:04:50.729Z,62.22
2018-12-18T10:07:24.714Z,62.32
2018-12-18T10:09:58.748Z,62.32
2018-12-18T10:12:38.065Z,62.02
2018-12-18T10:15:12.093Z,62.28
2018-12-18T10:17:45.787Z,61.94
2018-12-18T10:20:19.908Z,61.54
2018-12-18T10:22:53.915Z,61.63
2018-12-18T10:25:27.816Z,61.22
2018-12-18T10:28:01.806Z,60.92
2018-12-18T10:30:35.744Z,60.75
2018-12-18T10:33:09.817Z,60.96
2018-12-18T10:35:43.834Z,61.61
2018-12-18T10:38:17.782Z,60.75
2018-12-18T10:40:51.783Z,60.79
2018-12-18T10:43:25.686Z,60.27
2018-12-18T10:45:59.450Z,60.24
2018-12-18T10:48:33.299Z,59.35
2018-12-18T10:51:07.101Z,59.55
2018-12-18T10:53:41.008Z,59.44
2018-12-18T10:56:15.121Z,59.61
2018-12-18T10:58:49.030Z,59.43
2018-12-18T11:04:24.183Z,59.79
2018-12-18T11:06:57.874Z,59.38
2018-12-18T11:09:31.673Z,60.43
2018-12-18T11:12:05.599Z,60.05
2018-12-18T11:14:39.344Z,59.76
2018-12-18T11:17:13.723Z,60.75
2018-12-18T11:19:47.449Z,61.26
2018-12-18T11:22:21.333Z,60.92
2018-12-18T11:24:55.237Z,61.59
2018-12-18T11:27:29.097Z,60.83
2018-12-18T11:30:03.160Z,61.14
2018-12-18T11:32:37.158Z,61.02
2018-12-18T11:35:11.275Z,61.27
2018-12-18T11:37:45.080Z,61.73
2018-12-18T11:40:18.989Z,61.73
2018-12-18T11:42:52.594Z,61.61
2018-12-18T11:45:26.536Z,62.10
2018-12-18T11:48:00.408Z,62.17
2018-12-18T11:50:34.416Z,61.66
2018-12-18T11:53:08.629Z,61.81
2018-12-18T11:55:42.381Z,61.51
2018-12-18T11:58:16.280Z,61.62
2018-12-18T12:00:50.303Z,61.64
2018-12-18T12:03:24.386Z,63.05
2018-12-18T12:05:58.472Z,63.50
2018-12-18T12:08:32.376Z,62.66
2018-12-18T12:11:06.189Z,61.55
2018-12-18T12:13:40.293Z,60.75
2018-12-18T12:16:14.048Z,59.94
2018-12-18T12:18:47.907Z,59.84
2018-12-18T12:21:21.636Z,59.02
2018-12-18T12:23:55.410Z,59.52
2018-12-18T12:26:33.877Z,59.71
2018-12-18T12:29:07.787Z,61.53
2018-12-18T12:31:41.946Z,61.92
2018-12-18T12:34:15.852Z,60.36
2018-12-18T12:36:49.760Z,60.58
2018-12-18T12:39:23.524Z,62.20
2018-12-18T12:41:57.677Z,63.35
2018-12-18T12:44:31.480Z,63.11
2018-12-18T12:47:05.286Z,63.06
2018-12-18T12:49:42.778Z,61.61
2018-12-18T12:52:16.889Z,61.92
2018-12-18T12:54:50.591Z,61.31
2018-12-18T12:57:24.404Z,61.16
2018-12-18T12:59:58.397Z,62.86
2018-12-18T13:02:32.517Z,62.73
2018-12-18T13:05:06.430Z,62.70
2018-12-18T13:07:40.436Z,63.04
2018-12-18T13:10:14.181Z,62.15
2018-12-18T13:12:48.149Z,61.50
2018-12-18T13:15:22.188Z,60.84
2018-12-18T13:17:56.268Z,60.48
2018-12-18T13:20:30.178Z,60.45
2018-12-18T13:23:04.185Z,61.70
2018-12-18T13:25:38.194Z,61.98
2018-12-18T13:28:12.102Z,62.39
2018-12-18T13:30:46.013Z,62.06
2018-12-18T13:33:19.937Z,62.41
2018-12-18T13:35:53.830Z,62.54
2018-12-18T13:38:27.629Z,62.95
2018-12-18T13:41:01.535Z,62.74
2018-12-18T13:43:35.546Z,62.19
2018-12-18T13:46:14.798Z,61.21
2018-12-18T13:48:45.408Z,61.02
2018-12-18T13:51:19.314Z,60.84
2018-12-18T13:53:53.225Z,60.57
2018-12-18T13:56:27.233Z,60.85
2018-12-18T13:59:01.243Z,60.58
2018-12-18T14:01:34.946Z,60.30
2018-12-18T14:04:08.952Z,60.25
2018-12-18T14:06:49.492Z,59.93
2018-12-18T14:09:18.984Z,60.42
2018-12-18T14:11:53.134Z,61.09
2018-12-18T14:14:27.048Z,60.85
2018-12-18T14:17:01.359Z,60.88
2018-12-18T14:19:35.674Z,60.88
2018-12-18T14:22:09.482Z,61.42
2018-12-18T14:24:43.530Z,61.57
2018-12-18T14:27:17.682Z,61.72
2018-12-18T14:29:51.815Z,61.31
2018-12-18T14:32:25.621Z,60.79
2018-12-18T14:34:59.306Z,60.25
2018-12-18T14:37:33.434Z,61.04
2018-12-18T14:40:07.543Z,61.06
2018-12-18T14:42:41.660Z,60.62
2018-12-18T14:45:15.360Z,60.40
2018-12-18T14:47:49.170Z,60.33
2018-12-18T14:50:23.280Z,60.27
2018-12-18T14:52:57.188Z,60.38
2018-12-18T14:55:31.985Z,61.16
2018-12-18T14:58:05.922Z,60.83
2018-12-18T15:00:39.932Z,60.68
2018-12-18T15:03:13.838Z,60.40
2018-12-18T15:05:47.756Z,60.36
2018-12-18T15:08:21.662Z,60.12
2018-12-18T15:10:55.868Z,60.29
2018-12-18T15:13:30.366Z,60.01
2018-12-18T15:16:04.297Z,59.99
2018-12-18T15:18:38.095Z,60.02
2018-12-18T15:21:12.063Z,60.19
2018-12-18T15:23:46.224Z,60.33
2018-12-18T15:26:19.928Z,60.35
2018-12-18T15:28:54.037Z,60.42
2018-12-18T15:31:28.060Z,60.26
2018-12-18T15:34:02.061Z,60.09
2018-12-18T15:36:36.070Z,60.20
2018-12-18T15:39:10.081Z,60.06
2018-12-18T15:41:44.191Z,59.84
2018-12-18T15:44:17.892Z,59.78
2018-12-18T15:46:52.088Z,59.35
2018-12-18T15:49:26.219Z,59.30
2018-12-18T15:52:00.094Z,59.03
2018-12-18T15:54:34.240Z,58.65
2018-12-18T15:57:08.002Z,58.08
2018-12-18T15:59:42.157Z,58.08
2018-12-18T16:02:16.065Z,57.32
2018-12-18T16:04:49.879Z,57.72
2018-12-18T16:07:23.877Z,57.82
2018-12-18T16:09:57.681Z,57.63
2018-12-18T16:12:31.796Z,57.79
2018-12-18T16:15:07.855Z,57.84
2018-12-18T16:17:41.566Z,58.16
2018-12-18T16:20:15.417Z,57.95
2018-12-18T16:22:49.471Z,58.11
2018-12-18T16:25:23.219Z,58.26
2018-12-18T16:27:57.286Z,58.26
2018-12-18T16:30:31.093Z,58.23
2018-12-18T16:33:05.009Z,58.27
2018-12-18T16:35:38.905Z,58.23
2018-12-18T16:38:12.694Z,58.44
2018-12-18T16:40:46.435Z,59.22
2018-12-18T16:43:20.294Z,59.15
2018-12-18T16:45:54.125Z,59.16
2018-12-18T16:48:28.236Z,59.19
2018-12-18T16:51:02.093Z,59.21
2018-12-18T16:53:36.153Z,60.06
2018-12-18T16:56:10.061Z,61.08
2018-12-18T16:58:43.839Z,60.66
2018-12-18T17:01:17.875Z,60.05
2018-12-18T17:03:51.800Z,59.37
2018-12-18T17:06:26.099Z,59.21
2018-12-18T17:09:00.109Z,59.53
2018-12-18T17:11:34.119Z,59.37
2018-12-18T17:14:07.928Z,59.80
2018-12-18T17:16:41.884Z,59.90
2018-12-18T17:19:15.947Z,59.70
2018-12-18T17:21:49.955Z,60.02
2018-12-18T17:24:24.066Z,60.22
2018-12-18T17:26:57.931Z,61.47
2018-12-18T17:29:32.088Z,61.79
2018-12-18T17:32:05.888Z,62.43
2018-12-18T17:34:39.750Z,65.13
2018-12-18T17:37:13.913Z,66.01
2018-12-18T17:39:47.803Z,64.42
2018-12-18T17:42:21.620Z,64.19
2018-12-18T17:44:55.734Z,64.07
2018-12-18T17:47:29.600Z,63.68
2018-12-18T17:50:05.086Z,64.30
2018-12-18T17:52:39.054Z,64.79
2018-12-18T17:55:13.103Z,64.06
2018-12-18T17:57:47.319Z,63.78
2018-12-18T18:00:21.533Z,64.73
2018-12-18T18:02:55.541Z,63.69
2018-12-18T18:05:29.653Z,62.89
2018-12-18T18:08:03.663Z,62.56
2018-12-18T18:10:37.612Z,62.19
2018-12-18T18:13:11.786Z,62.06
2018-12-18T18:15:45.493Z,61.86
2018-12-18T18:18:19.413Z,61.49
2018-12-18T18:20:53.819Z,61.78
2018-12-18T18:23:27.722Z,62.50
2018-12-18T18:26:01.833Z,62.96
2018-12-18T18:28:35.638Z,62.70
2018-12-18T18:31:10.569Z,61.97
2018-12-18T18:33:44.485Z,64.10
2018-12-18T18:36:18.384Z,63.77
2018-12-18T18:38:52.267Z,62.92
2018-12-18T18:41:26.202Z,62.22
2018-12-18T18:44:00.212Z,61.66
2018-12-18T18:46:34.319Z,61.57
2018-12-18T18:49:08.230Z,62.35
2018-12-18T18:51:42.237Z,61.77
2018-12-18T18:54:16.041Z,63.38
2018-12-18T18:56:49.810Z,63.36
2018-12-18T18:59:23.958Z,62.96
2018-12-18T19:01:57.867Z,61.94
2018-12-18T19:04:31.875Z,61.92
2018-12-18T19:07:05.941Z,62.50
2018-12-18T19:09:39.957Z,61.77
2018-12-18T19:12:14.006Z,61.06
2018-12-18T19:14:47.915Z,61.85
2018-12-18T19:17:21.720Z,62.12
2018-12-18T19:19:55.831Z,63.83
2018-12-18T19:22:29.839Z,64.93
2018-12-18T19:25:03.859Z,64.87
2018-12-18T19:27:37.963Z,64.08
2018-12-18T19:30:12.073Z,62.73
2018-12-18T19:32:46.940Z,63.41
2018-12-18T19:35:20.760Z,63.89
2018-12-18T19:37:54.716Z,65.04
2018-12-18T19:40:28.419Z,64.26
2018-12-18T19:43:02.428Z,63.85
2018-12-18T19:45:36.337Z,63.64
2018-12-18T19:48:10.243Z,63.78
2018-12-18T19:50:44.150Z,63.61
2018-12-18T19:53:18.058Z,64.73
2018-12-18T19:55:52.029Z,65.08
2018-12-18T19:58:26.050Z,65.03
2018-12-18T20:01:00.054Z,64.55
2018-12-18T20:03:34.096Z,64.46
2018-12-18T20:06:08.107Z,63.99
2018-12-18T20:08:42.013Z,63.63
2018-12-18T20:11:15.867Z,63.67
2018-12-18T20:13:49.929Z,64.04
2018-12-18T20:16:23.734Z,63.19
2018-12-18T20:18:57.642Z,63.73
2018-12-18T20:21:31.399Z,67.26
2018-12-18T20:24:05.456Z,65.86
2018-12-18T20:26:39.568Z,64.85
2018-12-18T20:29:13.373Z,64.97
2018-12-18T20:31:47.180Z,64.16
2018-12-18T20:34:21.188Z,64.85
2018-12-18T20:36:54.939Z,64.23
2018-12-18T20:39:29.002Z,63.97
2018-12-18T20:42:03.015Z,63.80
2018-12-18T20:44:36.924Z,63.82
2018-12-18T20:47:10.934Z,63.78
2018-12-18T20:49:45.090Z,63.69
2018-12-18T20:52:18.905Z,63.89
2018-12-18T20:54:52.847Z,64.31
2018-12-18T20:57:26.967Z,65.71
2018-12-18T21:00:01.594Z,64.87
2018-12-18T21:02:35.808Z,65.90
2018-12-18T21:05:11.328Z,65.28
2018-12-18T21:07:45.772Z,64.39
2018-12-18T21:10:19.680Z,63.19
2018-12-18T21:12:55.597Z,63.44
2018-12-18T21:15:29.493Z,63.12
2018-12-18T21:18:03.447Z,62.78
2018-12-18T21:20:37.372Z,63.39
2018-12-18T21:23:11.371Z,63.73
2018-12-18T21:25:45.478Z,63.61
2018-12-18T21:28:19.387Z,64.11
2018-12-18T21:30:53.193Z,64.11
2018-12-18T21:33:27.067Z,64.77
2018-12-18T21:36:01.056Z,64.21
2018-12-18T21:38:35.097Z,64.00
2018-12-18T21:41:09.111Z,63.78
2018-12-18T21:43:43.156Z,63.71
2018-12-18T21:46:17.148Z,63.47
2018-12-18T21:48:51.156Z,63.38
2018-12-18T21:51:24.958Z,63.26
2018-12-18T21:53:59.071Z,62.94
2018-12-18T21:56:33.079Z,62.76
2018-12-18T21:59:06.986Z,62.94
2018-12-18T22:01:40.842Z,63.14
2018-12-18T22:04:15.007Z,63.29
2018-12-18T22:06:48.913Z,63.57
2018-12-18T22:09:22.902Z,63.69
2018-12-18T22:11:57.143Z,63.92
2018-12-18T22:14:31.045Z,64.05
2018-12-18T22:17:04.819Z,63.71
2018-12-18T22:19:39.064Z,65.74
2018-12-18T22:22:13.050Z,65.56
2018-12-18T22:24:47.143Z,65.25
2018-12-18T22:27:21.154Z,63.60
2018-12-18T22:29:55.315Z,63.88
2018-12-18T22:32:29.019Z,63.47
2018-12-18T22:35:03.161Z,63.20
2018-12-18T22:37:37.134Z,64.11
2018-12-18T22:40:11.141Z,64.07
2018-12-18T22:42:45.048Z,63.82
2018-12-18T22:45:18.955Z,64.94
2018-12-18T22:47:52.865Z,65.72
2018-12-18T22:50:26.769Z,64.97
2018-12-18T22:53:00.779Z,64.46
2018-12-18T22:55:34.788Z,64.83
2018-12-18T22:58:08.798Z,64.64
2018-12-18T23:00:48.599Z,64.73
2018-12-18T23:03:22.661Z,64.20
2018-12-18T23:05:56.766Z,64.38
2018-12-18T23:08:31.289Z,64.96
2018-12-18T23:11:05.538Z,64.51
2018-12-18T23:13:39.671Z,64.48
2018-12-18T23:16:13.829Z,63.86
2018-12-18T23:18:47.839Z,63.44
2018-12-18T23:21:21.745Z,62.57
2018-12-18T23:23:55.858Z,62.23
2018-12-18T23:26:29.528Z,61.68
2018-12-18T23:29:03.429Z,66.67
2018-12-18T23:31:37.067Z,66.61
2018-12-18T23:34:11.186Z,67.46
2018-12-18T23:36:45.188Z,69.10
2018-12-18T23:39:18.994Z,68.12
2018-12-18T23:41:53.003Z,67.50
2018-12-18T23:44:26.998Z,66.96
2018-12-18T23:47:01.124Z,66.04
2018-12-18T23:49:34.932Z,65.45
2018-12-18T23:52:08.858Z,64.67
2018-12-18T23:54:44.461Z,64.30
2018-12-18T23:57:18.346Z,64.15
2018-12-18T23:59:52.505Z,64.68
